sensor_id;sensor_type;location;lat;lon;timestamp;temperature;humidity
29453;DHT22;16424;50.956;5.320;2023-02-11T00:01:50;7.50;99.90
29453;DHT22;16424;50.956;5.320;2023-02-11T00:04:16;7.40;99.90
29453;DHT22;16424;50.956;5.320;2023-02-11T00:06:42;7.40;99.90
29453;DHT22;16424;50.956;5.320;2023-02-11T00:09:08;7.50;99.90
29453;DHT22;16424;50.956;5.320;2023-02-11T00:11:34;7.50;99.90
29453;DHT22;16424;50.956;5.320;2023-02-11T00:14:04;7.30;99.90
29453;DHT22;16424;50.956;5.320;2023-02-11T00:16:30;7.20;99.90
29453;DHT22;16424;50.956;5.320;2023-02-11T00:18:58;7.30;99.90
29453;DHT22;16424;50.956;5.320;2023-02-11T00:21:25;7.30;99.90
29453;DHT22;16424;50.956;5.320;2023-02-11T00:23:51;7.30;99.90
29453;DHT22;16424;50.956;5.320;2023-02-11T00:26:21;7.20;99.90
29453;DHT22;16424;50.956;5.320;2023-02-11T00:28:48;7.10;99.90
29453;DHT22;16424;50.956;5.320;2023-02-11T00:31:16;7.10;99.90
29453;DHT22;16424;50.956;5.320;2023-02-11T00:33:42;7.30;99.90
29453;DHT22;16424;50.956;5.320;2023-02-11T00:36:12;7.40;99.90
29453;DHT22;16424;50.956;5.320;2023-02-11T00:38:38;7.40;99.90
29453;DHT22;16424;50.956;5.320;2023-02-11T00:41:04;7.50;99.90
29453;DHT22;16424;50.956;5.320;2023-02-11T00:43:29;7.30;99.90
29453;DHT22;16424;50.956;5.320;2023-02-11T00:45:55;7.20;99.90
29453;DHT22;16424;50.956;5.320;2023-02-11T00:48:23;7.30;99.90
29453;DHT22;16424;50.956;5.320;2023-02-11T00:50:49;7.30;99.90
29453;DHT22;16424;50.956;5.320;2023-02-11T00:53:15;7.30;99.90
29453;DHT22;16424;50.956;5.320;2023-02-11T00:55:40;7.50;99.90
29453;DHT22;16424;50.956;5.320;2023-02-11T00:58:06;7.60;99.90
29453;DHT22;16424;50.956;5.320;2023-02-11T01:00:32;7.50;99.90
29453;DHT22;16424;50.956;5.320;2023-02-11T01:03:01;7.40;99.90
29453;DHT22;16424;50.956;5.320;2023-02-11T01:05:27;7.40;99.90
29453;DHT22;16424;50.956;5.320;2023-02-11T01:07:53;7.40;99.90
29453;DHT22;16424;50.956;5.320;2023-02-11T01:10:19;7.40;99.90
29453;DHT22;16424;50.956;5.320;2023-02-11T01:12:45;7.60;99.90
29453;DHT22;16424;50.956;5.320;2023-02-11T01:15:13;7.60;99.90
29453;DHT22;16424;50.956;5.320;2023-02-11T01:17:39;7.50;99.90
29453;DHT22;16424;50.956;5.320;2023-02-11T01:20:06;7.60;99.90
29453;DHT22;16424;50.956;5.320;2023-02-11T01:22:32;7.60;99.90
29453;DHT22;16424;50.956;5.320;2023-02-11T01:24:59;7.60;99.90
29453;DHT22;16424;50.956;5.320;2023-02-11T01:27:25;7.20;99.90
29453;DHT22;16424;50.956;5.320;2023-02-11T01:29:50;7.30;99.90
29453;DHT22;16424;50.956;5.320;2023-02-11T01:32:17;7.40;99.90
29453;DHT22;16424;50.956;5.320;2023-02-11T01:34:42;7.50;99.90
29453;DHT22;16424;50.956;5.320;2023-02-11T01:37:09;7.70;99.90
29453;DHT22;16424;50.956;5.320;2023-02-11T01:39:35;7.70;99.90
29453;DHT22;16424;50.956;5.320;2023-02-11T01:42:00;7.70;99.90
29453;DHT22;16424;50.956;5.320;2023-02-11T01:44:35;7.70;99.90
29453;DHT22;16424;50.956;5.320;2023-02-11T01:47:02;7.70;99.90
29453;DHT22;16424;50.956;5.320;2023-02-11T01:49:35;7.50;99.90
29453;DHT22;16424;50.956;5.320;2023-02-11T01:52:09;7.40;99.90
29453;DHT22;16424;50.956;5.320;2023-02-11T01:54:47;7.50;99.90
29453;DHT22;16424;50.956;5.320;2023-02-11T01:57:35;7.70;99.90
29453;DHT22;16424;50.956;5.320;2023-02-11T02:06:03;7.50;99.90
29453;DHT22;16424;50.956;5.320;2023-02-11T02:08:33;7.50;99.90
29453;DHT22;16424;50.956;5.320;2023-02-11T02:11:01;7.60;99.90
29453;DHT22;16424;50.956;5.320;2023-02-11T02:13:29;7.60;99.90
29453;DHT22;16424;50.956;5.320;2023-02-11T02:15:56;7.40;99.90
29453;DHT22;16424;50.956;5.320;2023-02-11T02:38:36;7.80;99.90
29453;DHT22;16424;50.956;5.320;2023-02-11T02:41:10;7.60;99.90
29453;DHT22;16424;50.956;5.320;2023-02-11T02:43:41;7.70;99.90
29453;DHT22;16424;50.956;5.320;2023-02-11T02:46:29;7.70;99.90
29453;DHT22;16424;50.956;5.320;2023-02-11T02:48:56;7.70;99.90
29453;DHT22;16424;50.956;5.320;2023-02-11T03:02:41;7.70;99.90
29453;DHT22;16424;50.956;5.320;2023-02-11T03:05:38;7.70;99.90
29453;DHT22;16424;50.956;5.320;2023-02-11T03:10:46;7.50;99.90
29453;DHT22;16424;50.956;5.320;2023-02-11T03:13:19;7.50;99.90
29453;DHT22;16424;50.956;5.320;2023-02-11T03:15:50;7.50;99.90
29453;DHT22;16424;50.956;5.320;2023-02-11T03:18:18;7.60;99.90
29453;DHT22;16424;50.956;5.320;2023-02-11T03:20:50;7.50;99.90
29453;DHT22;16424;50.956;5.320;2023-02-11T03:23:36;7.60;99.90
29453;DHT22;16424;50.956;5.320;2023-02-11T03:32:13;7.60;99.90
29453;DHT22;16424;50.956;5.320;2023-02-11T03:34:48;7.60;99.90
29453;DHT22;16424;50.956;5.320;2023-02-11T03:37:21;7.70;99.90
29453;DHT22;16424;50.956;5.320;2023-02-11T03:42:27;7.90;99.90
29453;DHT22;16424;50.956;5.320;2023-02-11T03:44:59;7.80;99.90
29453;DHT22;16424;50.956;5.320;2023-02-11T03:47:27;7.70;99.90
29453;DHT22;16424;50.956;5.320;2023-02-11T03:49:54;7.50;99.90
29453;DHT22;16424;50.956;5.320;2023-02-11T03:52:27;7.50;99.90
29453;DHT22;16424;50.956;5.320;2023-02-11T03:54:57;7.60;99.90
29453;DHT22;16424;50.956;5.320;2023-02-11T03:57:24;7.60;99.90
29453;DHT22;16424;50.956;5.320;2023-02-11T03:59:53;7.70;99.90
29453;DHT22;16424;50.956;5.320;2023-02-11T04:02:19;7.60;99.90
29453;DHT22;16424;50.956;5.320;2023-02-11T04:04:46;7.60;99.90
29453;DHT22;16424;50.956;5.320;2023-02-11T04:07:11;7.60;99.90
29453;DHT22;16424;50.956;5.320;2023-02-11T04:09:37;7.40;99.90
29453;DHT22;16424;50.956;5.320;2023-02-11T04:12:06;7.40;99.90
29453;DHT22;16424;50.956;5.320;2023-02-11T04:14:35;7.30;99.90
29453;DHT22;16424;50.956;5.320;2023-02-11T04:17:01;7.40;99.90
29453;DHT22;16424;50.956;5.320;2023-02-11T04:19:27;7.40;99.90
29453;DHT22;16424;50.956;5.320;2023-02-11T04:21:53;7.40;99.90
29453;DHT22;16424;50.956;5.320;2023-02-11T04:24:19;7.50;99.90
29453;DHT22;16424;50.956;5.320;2023-02-11T04:26:45;7.40;99.90
29453;DHT22;16424;50.956;5.320;2023-02-11T04:29:10;7.20;99.90
29453;DHT22;16424;50.956;5.320;2023-02-11T04:31:39;7.30;99.90
29453;DHT22;16424;50.956;5.320;2023-02-11T04:34:04;7.40;99.90
29453;DHT22;16424;50.956;5.320;2023-02-11T04:36:30;7.40;99.90
29453;DHT22;16424;50.956;5.320;2023-02-11T04:38:56;7.30;99.90
29453;DHT22;16424;50.956;5.320;2023-02-11T04:41:21;7.30;99.90
29453;DHT22;16424;50.956;5.320;2023-02-11T04:43:47;7.40;99.90
29453;DHT22;16424;50.956;5.320;2023-02-11T04:46:13;7.30;99.90
29453;DHT22;16424;50.956;5.320;2023-02-11T04:48:38;7.30;99.90
29453;DHT22;16424;50.956;5.320;2023-02-11T04:51:04;7.50;99.90
29453;DHT22;16424;50.956;5.320;2023-02-11T04:53:30;7.50;99.90
29453;DHT22;16424;50.956;5.320;2023-02-11T04:55:56;7.50;99.90
29453;DHT22;16424;50.956;5.320;2023-02-11T04:58:21;7.50;99.90
29453;DHT22;16424;50.956;5.320;2023-02-11T05:00:48;7.60;99.90
29453;DHT22;16424;50.956;5.320;2023-02-11T05:03:14;7.60;99.90
29453;DHT22;16424;50.956;5.320;2023-02-11T05:05:41;7.50;99.90
29453;DHT22;16424;50.956;5.320;2023-02-11T05:08:10;7.50;99.90
29453;DHT22;16424;50.956;5.320;2023-02-11T05:10:37;7.40;99.90
29453;DHT22;16424;50.956;5.320;2023-02-11T05:13:03;7.50;99.90
29453;DHT22;16424;50.956;5.320;2023-02-11T05:15:30;7.50;99.90
29453;DHT22;16424;50.956;5.320;2023-02-11T05:17:55;7.50;99.90
29453;DHT22;16424;50.956;5.320;2023-02-11T05:20:21;7.50;99.90
29453;DHT22;16424;50.956;5.320;2023-02-11T05:22:47;7.50;99.90
29453;DHT22;16424;50.956;5.320;2023-02-11T05:25:12;7.60;99.90
29453;DHT22;16424;50.956;5.320;2023-02-11T05:27:40;7.60;99.90
29453;DHT22;16424;50.956;5.320;2023-02-11T05:30:06;7.60;99.90
29453;DHT22;16424;50.956;5.320;2023-02-11T05:32:32;7.60;99.90
29453;DHT22;16424;50.956;5.320;2023-02-11T05:34:58;7.60;99.90
29453;DHT22;16424;50.956;5.320;2023-02-11T05:37:23;7.60;99.90
29453;DHT22;16424;50.956;5.320;2023-02-11T05:39:49;7.60;99.90
29453;DHT22;16424;50.956;5.320;2023-02-11T05:42:15;7.60;99.90
29453;DHT22;16424;50.956;5.320;2023-02-11T05:44:40;7.70;99.90
29453;DHT22;16424;50.956;5.320;2023-02-11T05:47:06;7.60;99.90
29453;DHT22;16424;50.956;5.320;2023-02-11T05:49:34;7.50;99.90
29453;DHT22;16424;50.956;5.320;2023-02-11T05:52:00;7.50;99.90
29453;DHT22;16424;50.956;5.320;2023-02-11T05:54:26;7.50;99.90
29453;DHT22;16424;50.956;5.320;2023-02-11T05:56:51;7.40;99.90
29453;DHT22;16424;50.956;5.320;2023-02-11T05:59:18;7.30;99.90
29453;DHT22;16424;50.956;5.320;2023-02-11T06:01:43;7.20;99.90
29453;DHT22;16424;50.956;5.320;2023-02-11T06:04:09;7.30;99.90
29453;DHT22;16424;50.956;5.320;2023-02-11T06:06:35;7.30;99.90
29453;DHT22;16424;50.956;5.320;2023-02-11T06:09:00;7.30;99.90
29453;DHT22;16424;50.956;5.320;2023-02-11T06:11:27;7.50;99.90
29453;DHT22;16424;50.956;5.320;2023-02-11T06:13:52;7.40;99.90
29453;DHT22;16424;50.956;5.320;2023-02-11T06:16:18;7.60;99.90
29453;DHT22;16424;50.956;5.320;2023-02-11T06:18:43;7.50;99.90
29453;DHT22;16424;50.956;5.320;2023-02-11T06:21:10;7.30;99.90
29453;DHT22;16424;50.956;5.320;2023-02-11T06:23:36;7.30;99.90
29453;DHT22;16424;50.956;5.320;2023-02-11T06:26:04;7.50;99.90
29453;DHT22;16424;50.956;5.320;2023-02-11T06:28:32;7.30;99.90
29453;DHT22;16424;50.956;5.320;2023-02-11T06:31:02;7.40;99.90
29453;DHT22;16424;50.956;5.320;2023-02-11T06:33:31;7.40;99.90
29453;DHT22;16424;50.956;5.320;2023-02-11T06:35:57;7.40;99.90
29453;DHT22;16424;50.956;5.320;2023-02-11T06:38:26;7.30;99.90
29453;DHT22;16424;50.956;5.320;2023-02-11T06:40:51;7.10;99.90
29453;DHT22;16424;50.956;5.320;2023-02-11T06:43:17;7.20;99.90
29453;DHT22;16424;50.956;5.320;2023-02-11T06:45:43;7.40;99.90
29453;DHT22;16424;50.956;5.320;2023-02-11T06:48:09;7.60;99.90
29453;DHT22;16424;50.956;5.320;2023-02-11T06:50:34;7.50;99.90
29453;DHT22;16424;50.956;5.320;2023-02-11T06:53:00;7.50;99.90
29453;DHT22;16424;50.956;5.320;2023-02-11T06:55:26;7.60;99.90
29453;DHT22;16424;50.956;5.320;2023-02-11T06:57:52;7.50;99.90
29453;DHT22;16424;50.956;5.320;2023-02-11T07:00:18;7.50;99.90
29453;DHT22;16424;50.956;5.320;2023-02-11T07:02:44;7.60;99.90
29453;DHT22;16424;50.956;5.320;2023-02-11T07:05:10;7.70;99.90
29453;DHT22;16424;50.956;5.320;2023-02-11T07:07:36;7.90;99.90
29453;DHT22;16424;50.956;5.320;2023-02-11T07:10:02;8.10;99.90
29453;DHT22;16424;50.956;5.320;2023-02-11T07:12:29;8.20;99.90
29453;DHT22;16424;50.956;5.320;2023-02-11T07:14:55;8.10;99.90
29453;DHT22;16424;50.956;5.320;2023-02-11T07:17:21;8.10;99.90
29453;DHT22;16424;50.956;5.320;2023-02-11T07:19:47;8.20;99.90
29453;DHT22;16424;50.956;5.320;2023-02-11T07:22:13;8.00;99.90
29453;DHT22;16424;50.956;5.320;2023-02-11T07:24:39;8.10;99.90
29453;DHT22;16424;50.956;5.320;2023-02-11T07:27:04;8.20;99.90
29453;DHT22;16424;50.956;5.320;2023-02-11T07:29:30;8.10;99.90
29453;DHT22;16424;50.956;5.320;2023-02-11T07:31:56;8.00;99.90
29453;DHT22;16424;50.956;5.320;2023-02-11T07:34:21;8.10;99.90
29453;DHT22;16424;50.956;5.320;2023-02-11T07:36:47;8.10;99.90
29453;DHT22;16424;50.956;5.320;2023-02-11T07:39:13;8.20;99.90
29453;DHT22;16424;50.956;5.320;2023-02-11T07:41:39;8.10;99.90
29453;DHT22;16424;50.956;5.320;2023-02-11T07:44:05;8.20;99.90
29453;DHT22;16424;50.956;5.320;2023-02-11T07:46:31;8.30;99.90
29453;DHT22;16424;50.956;5.320;2023-02-11T07:48:59;8.30;99.90
29453;DHT22;16424;50.956;5.320;2023-02-11T07:51:29;8.30;99.90
29453;DHT22;16424;50.956;5.320;2023-02-11T07:53:59;8.40;99.90
29453;DHT22;16424;50.956;5.320;2023-02-11T07:56:25;8.60;99.90
29453;DHT22;16424;50.956;5.320;2023-02-11T07:58:51;8.50;99.90
29453;DHT22;16424;50.956;5.320;2023-02-11T08:01:19;8.40;99.90
29453;DHT22;16424;50.956;5.320;2023-02-11T08:03:46;8.30;99.90
29453;DHT22;16424;50.956;5.320;2023-02-11T08:06:17;8.20;99.90
29453;DHT22;16424;50.956;5.320;2023-02-11T08:08:44;8.10;99.90
29453;DHT22;16424;50.956;5.320;2023-02-11T08:13:36;8.20;99.90
29453;DHT22;16424;50.956;5.320;2023-02-11T08:16:03;8.20;99.90
29453;DHT22;16424;50.956;5.320;2023-02-11T08:18:30;8.20;99.90
29453;DHT22;16424;50.956;5.320;2023-02-11T08:20:56;8.00;99.90
29453;DHT22;16424;50.956;5.320;2023-02-11T08:23:22;8.00;99.90
29453;DHT22;16424;50.956;5.320;2023-02-11T08:25:47;8.10;99.90
29453;DHT22;16424;50.956;5.320;2023-02-11T08:28:13;8.00;99.90
29453;DHT22;16424;50.956;5.320;2023-02-11T08:30:39;8.00;99.90
29453;DHT22;16424;50.956;5.320;2023-02-11T08:33:05;8.10;99.90
29453;DHT22;16424;50.956;5.320;2023-02-11T08:35:30;8.30;99.90
29453;DHT22;16424;50.956;5.320;2023-02-11T08:37:57;8.40;99.90
29453;DHT22;16424;50.956;5.320;2023-02-11T08:40:23;8.40;99.90
29453;DHT22;16424;50.956;5.320;2023-02-11T08:42:49;8.40;99.90
29453;DHT22;16424;50.956;5.320;2023-02-11T08:45:15;8.50;99.90
29453;DHT22;16424;50.956;5.320;2023-02-11T08:47:40;8.50;99.90
29453;DHT22;16424;50.956;5.320;2023-02-11T08:50:07;8.50;99.90
29453;DHT22;16424;50.956;5.320;2023-02-11T08:52:32;8.30;99.90
29453;DHT22;16424;50.956;5.320;2023-02-11T08:54:58;8.40;99.90
29453;DHT22;16424;50.956;5.320;2023-02-11T08:57:24;8.40;99.90
29453;DHT22;16424;50.956;5.320;2023-02-11T08:59:52;8.30;99.90
29453;DHT22;16424;50.956;5.320;2023-02-11T09:02:18;8.20;99.90
29453;DHT22;16424;50.956;5.320;2023-02-11T09:04:43;8.30;99.90
29453;DHT22;16424;50.956;5.320;2023-02-11T09:07:09;8.30;99.90
29453;DHT22;16424;50.956;5.320;2023-02-11T09:09:35;8.30;99.90
29453;DHT22;16424;50.956;5.320;2023-02-11T09:12:01;8.60;99.90
29453;DHT22;16424;50.956;5.320;2023-02-11T09:14:27;8.70;99.90
29453;DHT22;16424;50.956;5.320;2023-02-11T09:16:52;8.70;99.90
29453;DHT22;16424;50.956;5.320;2023-02-11T09:19:19;8.60;99.90
29453;DHT22;16424;50.956;5.320;2023-02-11T09:21:45;8.50;99.90
29453;DHT22;16424;50.956;5.320;2023-02-11T09:24:11;8.50;99.90
29453;DHT22;16424;50.956;5.320;2023-02-11T09:26:37;8.80;99.90
29453;DHT22;16424;50.956;5.320;2023-02-11T09:29:04;8.80;99.90
29453;DHT22;16424;50.956;5.320;2023-02-11T09:31:31;8.60;99.90
29453;DHT22;16424;50.956;5.320;2023-02-11T09:33:59;8.40;99.90
29453;DHT22;16424;50.956;5.320;2023-02-11T09:36:28;8.40;99.90
29453;DHT22;16424;50.956;5.320;2023-02-11T09:38:56;8.50;99.90
29453;DHT22;16424;50.956;5.320;2023-02-11T09:43:50;8.60;99.90
29453;DHT22;16424;50.956;5.320;2023-02-11T09:46:18;8.60;99.90
29453;DHT22;16424;50.956;5.320;2023-02-11T09:48:46;8.60;99.90
29453;DHT22;16424;50.956;5.320;2023-02-11T09:51:19;8.70;99.90
29453;DHT22;16424;50.956;5.320;2023-02-11T09:53:49;8.70;99.90
29453;DHT22;16424;50.956;5.320;2023-02-11T09:56:15;8.70;99.90
29453;DHT22;16424;50.956;5.320;2023-02-11T09:58:43;8.70;99.90
29453;DHT22;16424;50.956;5.320;2023-02-11T10:06:47;8.60;99.90
29453;DHT22;16424;50.956;5.320;2023-02-11T10:18:06;8.90;99.90
29453;DHT22;16424;50.956;5.320;2023-02-11T10:21:00;8.80;99.90
29453;DHT22;16424;50.956;5.320;2023-02-11T10:23:33;8.90;99.90
29453;DHT22;16424;50.956;5.320;2023-02-11T10:26:01;9.20;99.90
29453;DHT22;16424;50.956;5.320;2023-02-11T10:28:35;9.20;99.90
29453;DHT22;16424;50.956;5.320;2023-02-11T10:31:19;9.10;99.90
29453;DHT22;16424;50.956;5.320;2023-02-11T10:36:22;8.90;99.90
29453;DHT22;16424;50.956;5.320;2023-02-11T10:38:49;9.10;99.90
29453;DHT22;16424;50.956;5.320;2023-02-11T10:41:21;9.30;99.90
29453;DHT22;16424;50.956;5.320;2023-02-11T10:43:49;9.20;99.90
29453;DHT22;16424;50.956;5.320;2023-02-11T10:46:29;9.30;99.90
29453;DHT22;16424;50.956;5.320;2023-02-11T10:48:56;9.30;99.90
29453;DHT22;16424;50.956;5.320;2023-02-11T10:51:23;9.40;99.90
29453;DHT22;16424;50.956;5.320;2023-02-11T10:54:16;9.30;99.90
29453;DHT22;16424;50.956;5.320;2023-02-11T10:56:50;9.40;99.90
29453;DHT22;16424;50.956;5.320;2023-02-11T10:59:25;9.60;99.90
29453;DHT22;16424;50.956;5.320;2023-02-11T11:01:55;9.60;99.90
29453;DHT22;16424;50.956;5.320;2023-02-11T11:04:41;9.50;99.90
29453;DHT22;16424;50.956;5.320;2023-02-11T11:07:22;9.60;99.90
29453;DHT22;16424;50.956;5.320;2023-02-11T11:09:52;9.60;99.90
29453;DHT22;16424;50.956;5.320;2023-02-11T11:12:36;9.60;99.90
29453;DHT22;16424;50.956;5.320;2023-02-11T11:17:36;9.60;99.90
29453;DHT22;16424;50.956;5.320;2023-02-11T11:20:22;9.60;99.90
29453;DHT22;16424;50.956;5.320;2023-02-11T11:22:50;9.50;99.90
29453;DHT22;16424;50.956;5.320;2023-02-11T11:25:27;9.70;99.90
29453;DHT22;16424;50.956;5.320;2023-02-11T11:27:58;9.60;99.90
29453;DHT22;16424;50.956;5.320;2023-02-11T11:30:37;9.60;99.90
29453;DHT22;16424;50.956;5.320;2023-02-11T11:33:03;9.70;99.90
29453;DHT22;16424;50.956;5.320;2023-02-11T11:35:30;9.70;99.90
29453;DHT22;16424;50.956;5.320;2023-02-11T11:38:03;9.60;99.90
29453;DHT22;16424;50.956;5.320;2023-02-11T11:40:31;9.80;99.90
29453;DHT22;16424;50.956;5.320;2023-02-11T11:45:31;9.60;99.90
29453;DHT22;16424;50.956;5.320;2023-02-11T11:48:34;9.50;99.90
29453;DHT22;16424;50.956;5.320;2023-02-11T11:51:04;9.50;99.90
29453;DHT22;16424;50.956;5.320;2023-02-11T11:53:44;9.60;99.90
29453;DHT22;16424;50.956;5.320;2023-02-11T11:56:24;9.60;99.90
29453;DHT22;16424;50.956;5.320;2023-02-11T11:58:50;9.40;99.90
29453;DHT22;16424;50.956;5.320;2023-02-11T12:01:47;9.40;99.90
29453;DHT22;16424;50.956;5.320;2023-02-11T12:09:36;9.50;99.90
29453;DHT22;16424;50.956;5.320;2023-02-11T13:16:46;10.10;99.90
29453;DHT22;16424;50.956;5.320;2023-02-11T13:22:21;10.10;99.90
29453;DHT22;16424;50.956;5.320;2023-02-11T13:27:46;9.90;99.90
29453;DHT22;16424;50.956;5.320;2023-02-11T13:30:31;9.70;99.90
29453;DHT22;16424;50.956;5.320;2023-02-11T13:35:34;9.60;99.90
29453;DHT22;16424;50.956;5.320;2023-02-11T13:38:20;9.60;99.90
29453;DHT22;16424;50.956;5.320;2023-02-11T13:41:17;9.80;99.90
29453;DHT22;16424;50.956;5.320;2023-02-11T13:44:38;9.70;99.90
29453;DHT22;16424;50.956;5.320;2023-02-11T13:47:05;10.00;99.90
29453;DHT22;16424;50.956;5.320;2023-02-11T13:49:48;10.30;99.90
29453;DHT22;16424;50.956;5.320;2023-02-11T13:54:46;10.50;99.90
29453;DHT22;16424;50.956;5.320;2023-02-11T13:59:49;9.90;99.90
29453;DHT22;16424;50.956;5.320;2023-02-11T14:02:33;10.00;99.90
29453;DHT22;16424;50.956;5.320;2023-02-11T14:10:56;10.10;99.90
29453;DHT22;16424;50.956;5.320;2023-02-11T14:16:10;9.70;99.90
29453;DHT22;16424;50.956;5.320;2023-02-11T14:23:55;9.60;99.90
29453;DHT22;16424;50.956;5.320;2023-02-11T14:27:05;9.80;99.90
29453;DHT22;16424;50.956;5.320;2023-02-11T14:40:55;10.00;99.90
29453;DHT22;16424;50.956;5.320;2023-02-11T14:43:25;10.10;99.90
29453;DHT22;16424;50.956;5.320;2023-02-11T14:45:56;10.20;99.90
29453;DHT22;16424;50.956;5.320;2023-02-11T14:48:49;10.20;99.90
29453;DHT22;16424;50.956;5.320;2023-02-11T14:51:28;10.20;99.90
29453;DHT22;16424;50.956;5.320;2023-02-11T14:54:08;10.20;99.90
29453;DHT22;16424;50.956;5.320;2023-02-11T14:56:38;10.40;99.90
29453;DHT22;16424;50.956;5.320;2023-02-11T14:59:18;10.40;99.90
29453;DHT22;16424;50.956;5.320;2023-02-11T15:01:52;10.50;99.90
29453;DHT22;16424;50.956;5.320;2023-02-11T15:04:30;10.60;99.90
29453;DHT22;16424;50.956;5.320;2023-02-11T15:06:57;10.70;99.90
29453;DHT22;16424;50.956;5.320;2023-02-11T15:09:38;10.70;99.90
29453;DHT22;16424;50.956;5.320;2023-02-11T15:12:09;10.70;99.90
29453;DHT22;16424;50.956;5.320;2023-02-11T15:14:45;10.70;99.90
29453;DHT22;16424;50.956;5.320;2023-02-11T15:17:15;10.80;99.90
29453;DHT22;16424;50.956;5.320;2023-02-11T15:19:45;10.80;99.90
29453;DHT22;16424;50.956;5.320;2023-02-11T15:22:24;10.90;99.90
29453;DHT22;16424;50.956;5.320;2023-02-11T15:27:26;10.90;99.90
29453;DHT22;16424;50.956;5.320;2023-02-11T15:29:52;10.90;99.90
29453;DHT22;16424;50.956;5.320;2023-02-11T15:32:23;10.80;99.90
29453;DHT22;16424;50.956;5.320;2023-02-11T15:34:51;10.90;99.90
29453;DHT22;16424;50.956;5.320;2023-02-11T15:37:27;10.90;99.90
29453;DHT22;16424;50.956;5.320;2023-02-11T15:39:54;10.90;99.90
29453;DHT22;16424;50.956;5.320;2023-02-11T15:42:31;10.90;99.90
29453;DHT22;16424;50.956;5.320;2023-02-11T15:47:52;11.00;99.90
29453;DHT22;16424;50.956;5.320;2023-02-11T15:50:26;10.90;99.90
29453;DHT22;16424;50.956;5.320;2023-02-11T15:52:55;10.80;99.90
29453;DHT22;16424;50.956;5.320;2023-02-11T15:55:21;10.80;99.90
29453;DHT22;16424;50.956;5.320;2023-02-11T15:57:58;10.90;99.90
29453;DHT22;16424;50.956;5.320;2023-02-11T16:00:33;10.90;99.90
29453;DHT22;16424;50.956;5.320;2023-02-11T16:03:00;10.80;99.90
29453;DHT22;16424;50.956;5.320;2023-02-11T16:05:36;10.80;99.90
29453;DHT22;16424;50.956;5.320;2023-02-11T16:10:57;10.70;99.90
29453;DHT22;16424;50.956;5.320;2023-02-11T16:13:24;10.60;99.90
29453;DHT22;16424;50.956;5.320;2023-02-11T16:15:56;10.60;99.90
29453;DHT22;16424;50.956;5.320;2023-02-11T16:18:37;10.70;99.90
29453;DHT22;16424;50.956;5.320;2023-02-11T16:21:11;10.80;99.90
29453;DHT22;16424;50.956;5.320;2023-02-11T16:23:40;10.70;99.90
29453;DHT22;16424;50.956;5.320;2023-02-11T16:26:11;10.70;99.90
29453;DHT22;16424;50.956;5.320;2023-02-11T16:28:44;10.70;99.90
29453;DHT22;16424;50.956;5.320;2023-02-11T16:31:09;10.70;99.90
29453;DHT22;16424;50.956;5.320;2023-02-11T16:33:35;10.70;99.90
29453;DHT22;16424;50.956;5.320;2023-02-11T16:36:09;10.50;99.90
29453;DHT22;16424;50.956;5.320;2023-02-11T16:38:35;10.60;99.90
29453;DHT22;16424;50.956;5.320;2023-02-11T16:41:01;10.50;99.90
29453;DHT22;16424;50.956;5.320;2023-02-11T16:43:27;10.70;99.90
29453;DHT22;16424;50.956;5.320;2023-02-11T16:45:53;10.70;99.90
29453;DHT22;16424;50.956;5.320;2023-02-11T16:48:19;10.70;99.90
29453;DHT22;16424;50.956;5.320;2023-02-11T16:50:47;10.70;99.90
29453;DHT22;16424;50.956;5.320;2023-02-11T16:53:18;10.70;99.90
29453;DHT22;16424;50.956;5.320;2023-02-11T16:55:45;10.70;99.90
29453;DHT22;16424;50.956;5.320;2023-02-11T16:58:11;10.60;99.90
29453;DHT22;16424;50.956;5.320;2023-02-11T17:00:37;10.60;99.90
29453;DHT22;16424;50.956;5.320;2023-02-11T17:03:05;10.50;99.90
29453;DHT22;16424;50.956;5.320;2023-02-11T17:05:31;10.40;99.90
29453;DHT22;16424;50.956;5.320;2023-02-11T17:07:57;10.30;99.90
29453;DHT22;16424;50.956;5.320;2023-02-11T17:10:25;10.30;99.90
29453;DHT22;16424;50.956;5.320;2023-02-11T17:12:50;10.40;99.90
29453;DHT22;16424;50.956;5.320;2023-02-11T17:15:18;10.40;99.90
29453;DHT22;16424;50.956;5.320;2023-02-11T17:17:43;10.50;99.90
29453;DHT22;16424;50.956;5.320;2023-02-11T17:20:11;10.50;99.90
29453;DHT22;16424;50.956;5.320;2023-02-11T17:22:38;10.50;99.90
29453;DHT22;16424;50.956;5.320;2023-02-11T17:25:03;10.50;99.90
29453;DHT22;16424;50.956;5.320;2023-02-11T17:27:29;10.60;99.90
29453;DHT22;16424;50.956;5.320;2023-02-11T17:29:55;10.60;99.90
29453;DHT22;16424;50.956;5.320;2023-02-11T17:32:20;10.60;99.90
29453;DHT22;16424;50.956;5.320;2023-02-11T17:34:46;10.60;99.90
29453;DHT22;16424;50.956;5.320;2023-02-11T17:37:11;10.60;99.90
29453;DHT22;16424;50.956;5.320;2023-02-11T17:39:38;10.60;99.90
29453;DHT22;16424;50.956;5.320;2023-02-11T17:42:04;10.60;99.90
29453;DHT22;16424;50.956;5.320;2023-02-11T17:44:31;10.60;99.90
29453;DHT22;16424;50.956;5.320;2023-02-11T17:46:57;10.60;99.90
29453;DHT22;16424;50.956;5.320;2023-02-11T17:49:23;10.60;99.90
29453;DHT22;16424;50.956;5.320;2023-02-11T17:51:49;10.60;99.90
29453;DHT22;16424;50.956;5.320;2023-02-11T17:54:16;10.60;99.90
29453;DHT22;16424;50.956;5.320;2023-02-11T17:56:42;10.60;99.90
29453;DHT22;16424;50.956;5.320;2023-02-11T17:59:10;10.60;99.90
29453;DHT22;16424;50.956;5.320;2023-02-11T18:01:37;10.60;99.90
29453;DHT22;16424;50.956;5.320;2023-02-11T18:04:03;10.60;99.90
29453;DHT22;16424;50.956;5.320;2023-02-11T18:06:29;10.60;99.90
29453;DHT22;16424;50.956;5.320;2023-02-11T18:08:58;10.60;99.90
29453;DHT22;16424;50.956;5.320;2023-02-11T18:11:26;10.30;99.90
29453;DHT22;16424;50.956;5.320;2023-02-11T18:13:52;10.30;99.90
29453;DHT22;16424;50.956;5.320;2023-02-11T18:16:20;10.40;99.90
29453;DHT22;16424;50.956;5.320;2023-02-11T18:18:46;10.40;99.90
29453;DHT22;16424;50.956;5.320;2023-02-11T18:21:14;10.50;99.90
29453;DHT22;16424;50.956;5.320;2023-02-11T18:23:39;10.50;99.90
29453;DHT22;16424;50.956;5.320;2023-02-11T18:26:09;10.50;99.90
29453;DHT22;16424;50.956;5.320;2023-02-11T18:28:35;10.50;99.90
29453;DHT22;16424;50.956;5.320;2023-02-11T18:31:02;10.50;99.90
29453;DHT22;16424;50.956;5.320;2023-02-11T18:33:28;10.40;99.90
29453;DHT22;16424;50.956;5.320;2023-02-11T18:35:54;10.40;99.90
29453;DHT22;16424;50.956;5.320;2023-02-11T18:38:20;10.30;99.90
29453;DHT22;16424;50.956;5.320;2023-02-11T18:40:47;10.30;99.90
29453;DHT22;16424;50.956;5.320;2023-02-11T18:43:15;10.30;99.90
29453;DHT22;16424;50.956;5.320;2023-02-11T18:45:42;10.20;99.90
29453;DHT22;16424;50.956;5.320;2023-02-11T18:48:08;10.20;99.90
29453;DHT22;16424;50.956;5.320;2023-02-11T18:50:34;10.20;99.90
29453;DHT22;16424;50.956;5.320;2023-02-11T18:52:59;10.10;99.90
29453;DHT22;16424;50.956;5.320;2023-02-11T18:55:25;10.20;99.90
29453;DHT22;16424;50.956;5.320;2023-02-11T18:57:52;10.20;99.90
29453;DHT22;16424;50.956;5.320;2023-02-11T19:00:19;10.20;99.90
29453;DHT22;16424;50.956;5.320;2023-02-11T19:02:45;10.20;99.90
29453;DHT22;16424;50.956;5.320;2023-02-11T19:05:10;10.30;99.90
29453;DHT22;16424;50.956;5.320;2023-02-11T19:07:36;10.30;99.90